createdAt,value
2018-04-06T00:00:22.742Z,6.80
2018-04-06T00:02:50.554Z,6.80
2018-04-06T00:05:18.298Z,6.70
2018-04-06T00:07:46.049Z,6.60
2018-04-06T00:10:13.897Z,6.50
2018-04-06T00:12:41.657Z,6.50
2018-04-06T00:15:09.405Z,6.50
2018-04-06T00:17:37.991Z,6.40
2018-04-06T00:20:05.744Z,6.40
2018-04-06T00:22:34.266Z,6.40
2018-04-06T00:25:02.072Z,6.40
2018-04-06T00:27:30.606Z,6.40
2018-04-06T00:29:58.363Z,6.40
2018-04-06T00:32:26.190Z,6.40
2018-04-06T00:34:54.717Z,6.40
2018-04-06T00:37:23.278Z,6.40
2018-04-06T00:39:51.086Z,6.40
2018-04-06T00:42:18.837Z,6.40
2018-04-06T00:44:46.586Z,6.40
2018-04-06T00:47:14.400Z,6.40
2018-04-06T00:49:42.932Z,6.60
2018-04-06T00:52:10.689Z,6.60
2018-04-06T00:54:38.509Z,6.70
2018-04-06T00:57:06.263Z,6.80
2018-04-06T00:59:34.027Z,6.80
2018-04-06T01:02:02.603Z,6.90
2018-04-06T01:04:31.129Z,6.80
2018-04-06T01:07:00.526Z,6.80
2018-04-06T01:09:28.337Z,6.80
2018-04-06T01:11:56.860Z,6.90
2018-04-06T01:14:24.607Z,6.90
2018-04-06T01:16:52.419Z,7.00
2018-04-06T01:19:20.198Z,7.10
2018-04-06T01:21:47.948Z,7.10
2018-04-06T01:24:15.761Z,7.20
2018-04-06T01:26:43.544Z,7.20
2018-04-06T01:29:11.292Z,7.20
2018-04-06T01:31:39.839Z,7.10
2018-04-06T01:34:07.607Z,7.10
2018-04-06T01:36:36.125Z,7.10
2018-04-06T01:39:04.730Z,7.10
2018-04-06T01:41:32.500Z,7.10
2018-04-06T01:44:00.269Z,7.10
2018-04-06T01:46:28.088Z,7.00
2018-04-06T01:48:55.853Z,7.00
2018-04-06T01:51:23.605Z,6.90
2018-04-06T01:53:51.423Z,7.00
2018-04-06T01:56:19.197Z,7.00
2018-04-06T01:58:47.732Z,7.00
2018-04-06T02:01:15.545Z,7.00
2018-04-06T02:03:44.067Z,7.00
2018-04-06T02:06:11.828Z,7.00
2018-04-06T02:08:39.647Z,6.90
2018-04-06T02:11:08.178Z,7.00
2018-04-06T02:13:35.942Z,6.90
2018-04-06T02:16:03.787Z,7.00
2018-04-06T02:18:31.538Z,7.00
2018-04-06T02:20:59.300Z,6.90
2018-04-06T02:23:27.106Z,6.90
2018-04-06T02:25:54.863Z,6.80
2018-04-06T02:28:22.614Z,6.70
2018-04-06T02:30:50.422Z,6.70
2018-04-06T02:33:18.185Z,6.70
2018-04-06T02:35:46.697Z,6.60
2018-04-06T02:38:14.514Z,6.60
2018-04-06T02:40:42.273Z,6.50
2018-04-06T02:43:10.020Z,6.50
2018-04-06T02:45:37.812Z,6.40
2018-04-06T02:48:06.340Z,6.40
2018-04-06T02:50:34.100Z,6.40
2018-04-06T02:53:01.911Z,6.40
2018-04-06T02:55:30.427Z,6.40
2018-04-06T02:57:58.176Z,6.40
2018-04-06T03:00:26.019Z,6.30
2018-04-06T03:02:54.531Z,6.30
2018-04-06T03:05:22.286Z,6.30
2018-04-06T03:07:50.117Z,6.30
2018-04-06T03:10:18.635Z,6.30
2018-04-06T03:12:46.391Z,6.30
2018-04-06T03:15:14.208Z,6.30
2018-04-06T03:17:41.969Z,6.30
2018-04-06T03:20:09.724Z,6.40
2018-04-06T03:22:37.530Z,6.40
2018-04-06T03:25:05.321Z,6.40
2018-04-06T03:27:33.098Z,6.30
2018-04-06T03:30:00.942Z,6.20
2018-04-06T03:32:28.690Z,6.20
2018-04-06T03:34:56.447Z,6.20
2018-04-06T03:37:24.258Z,6.10
2018-04-06T03:39:52.003Z,6.10
2018-04-06T03:42:19.757Z,6.10
2018-04-06T03:44:47.567Z,6.10
2018-04-06T03:47:16.099Z,6.20
2018-04-06T03:49:43.863Z,6.10
2018-04-06T03:52:11.696Z,6.10
2018-04-06T03:54:39.442Z,6.10
2018-04-06T03:57:07.958Z,6.10
2018-04-06T03:59:35.757Z,6.10
2018-04-06T04:02:09.969Z,6.10
2018-04-06T04:04:42.174Z,6.10
2018-04-06T04:07:10.798Z,6.00
2018-04-06T04:09:38.564Z,6.00
2018-04-06T04:12:06.401Z,6.00
2018-04-06T04:14:34.141Z,6.00
2018-04-06T04:17:01.899Z,6.00
2018-04-06T04:19:30.478Z,6.00
2018-04-06T04:21:59.006Z,6.00
2018-04-06T04:24:26.758Z,5.90
2018-04-06T04:26:54.566Z,5.90
2018-04-06T04:29:22.327Z,6.00
2018-04-06T04:31:50.086Z,5.90
2018-04-06T04:34:17.938Z,6.00
2018-04-06T04:36:45.701Z,6.10
2018-04-06T04:39:13.446Z,6.10
2018-04-06T04:41:41.271Z,6.00
2018-04-06T04:44:09.031Z,6.00
2018-04-06T04:46:36.816Z,6.00
2018-04-06T04:49:04.635Z,5.90
2018-04-06T04:51:33.162Z,5.90
2018-04-06T04:54:00.911Z,5.80
2018-04-06T04:56:28.722Z,5.80
2018-04-06T04:58:56.481Z,5.80
2018-04-06T05:01:24.231Z,5.80
2018-04-06T05:03:52.042Z,5.80
2018-04-06T05:06:19.806Z,5.80
2018-04-06T05:08:47.565Z,5.70
2018-04-06T05:11:15.373Z,5.70
2018-04-06T05:13:43.118Z,5.60
2018-04-06T05:16:10.870Z,5.70
2018-04-06T05:18:38.697Z,5.60
2018-04-06T05:21:07.226Z,5.70
2018-04-06T05:23:34.991Z,5.70
2018-04-06T05:26:02.858Z,5.80
2018-04-06T05:28:30.626Z,6.00
2018-04-06T05:30:58.385Z,6.60
2018-04-06T05:33:26.186Z,7.40
2018-04-06T05:35:54.716Z,10.30
2018-04-06T05:38:22.484Z,10.30
2018-04-06T05:40:50.315Z,10.20
2018-04-06T05:43:18.074Z,8.90
2018-04-06T05:45:45.846Z,8.00
2018-04-06T05:48:13.652Z,7.30
2018-04-06T05:50:41.393Z,6.90
2018-04-06T05:53:09.924Z,8.10
2018-04-06T05:55:37.746Z,8.10
2018-04-06T05:58:05.498Z,9.00
2018-04-06T06:00:33.262Z,9.40
2018-04-06T06:03:01.073Z,9.90
2018-04-06T06:05:29.582Z,13.40
2018-04-06T06:07:57.350Z,13.40
2018-04-06T06:10:25.187Z,14.90
2018-04-06T06:12:53.725Z,16.00
2018-04-06T06:15:21.491Z,16.00
2018-04-06T06:17:49.320Z,16.10
2018-04-06T06:20:17.097Z,16.90
2018-04-06T06:22:44.854Z,17.30
2018-04-06T06:25:12.659Z,17.10
2018-04-06T06:27:40.415Z,17.40
2018-04-06T06:30:08.224Z,17.20
2018-04-06T06:32:36.029Z,18.00
2018-04-06T06:35:03.774Z,18.30
2018-04-06T06:37:31.566Z,18.50
2018-04-06T06:39:59.374Z,17.90
2018-04-06T06:42:27.121Z,17.00
2018-04-06T06:44:54.879Z,15.50
2018-04-06T06:47:22.711Z,15.60
2018-04-06T06:49:50.474Z,15.20
2018-04-06T06:52:18.231Z,14.40
2018-04-06T06:54:46.055Z,12.90
2018-04-06T06:57:13.816Z,13.30
2018-04-06T06:59:41.582Z,13.40
2018-04-06T07:02:09.455Z,15.00
2018-04-06T07:04:37.256Z,14.50
2018-04-06T07:07:05.777Z,15.00
2018-04-06T07:09:33.607Z,14.90
2018-04-06T07:12:02.153Z,18.40
2018-04-06T07:14:29.917Z,18.30
2018-04-06T07:16:57.738Z,19.80
2018-04-06T07:19:25.492Z,20.30
2018-04-06T07:21:53.240Z,20.00
2018-04-06T07:24:21.819Z,22.20
2018-04-06T07:26:50.349Z,21.80
2018-04-06T07:29:18.101Z,21.70
2018-04-06T07:31:45.900Z,19.80
2018-04-06T07:34:13.662Z,19.10
2018-04-06T07:36:41.423Z,21.10
2018-04-06T07:39:09.223Z,22.50
2018-04-06T07:41:36.982Z,24.30
2018-04-06T07:44:04.731Z,25.10
2018-04-06T07:46:33.313Z,23.50
2018-04-06T07:49:01.858Z,23.50
2018-04-06T07:51:29.647Z,23.50
2018-04-06T07:53:58.227Z,21.00
2018-04-06T07:56:26.755Z,21.40
2018-04-06T07:58:54.507Z,21.30
2018-04-06T08:01:22.310Z,21.60
2018-04-06T08:03:50.058Z,22.80
2018-04-06T08:06:17.810Z,23.50
2018-04-06T08:08:45.615Z,24.50
2018-04-06T08:11:13.369Z,24.00
2018-04-06T08:13:41.124Z,24.10
2018-04-06T08:16:08.926Z,23.90
2018-04-06T08:18:36.724Z,24.30
2018-04-06T08:21:04.469Z,24.80
2018-04-06T08:23:33.033Z,25.20
2018-04-06T08:26:00.774Z,25.20
2018-04-06T08:28:29.318Z,24.60
2018-04-06T08:30:57.121Z,24.60
2018-04-06T08:33:25.641Z,23.50
2018-04-06T08:35:53.408Z,23.50
2018-04-06T08:38:21.218Z,23.30
2018-04-06T08:40:49.798Z,23.50
2018-04-06T08:43:20.062Z,23.60
2018-04-06T08:45:48.698Z,24.50
2018-04-06T08:48:16.466Z,24.40
2018-04-06T08:50:44.222Z,25.60
2018-04-06T08:53:12.021Z,24.40
2018-04-06T08:55:39.792Z,25.10
2018-04-06T08:58:07.544Z,25.80
2018-04-06T09:00:35.358Z,25.60
2018-04-06T09:03:03.123Z,25.60
2018-04-06T09:05:30.930Z,24.90
2018-04-06T09:07:58.748Z,25.20
2018-04-06T09:10:26.498Z,25.90
2018-04-06T09:12:54.289Z,25.30
2018-04-06T09:15:22.886Z,23.90
2018-04-06T09:17:50.640Z,23.80
2018-04-06T09:20:19.160Z,21.70
2018-04-06T09:22:46.976Z,21.60
2018-04-06T09:25:15.501Z,16.20
2018-04-06T09:27:43.263Z,16.10
2018-04-06T09:30:11.080Z,14.80
2018-04-06T09:32:38.897Z,14.30
2018-04-06T09:35:06.671Z,14.00
2018-04-06T09:37:34.486Z,13.60
2018-04-06T09:40:02.264Z,13.50
2018-04-06T09:42:30.012Z,13.60
2018-04-06T09:44:57.828Z,13.50
2018-04-06T09:47:25.616Z,12.80
2018-04-06T09:49:54.175Z,12.10
2018-04-06T09:52:21.985Z,12.00
2018-04-06T09:54:49.748Z,11.70
2018-04-06T09:57:17.507Z,11.50
2018-04-06T09:59:45.338Z,11.40
2018-04-06T10:02:13.873Z,11.50
2018-04-06T10:04:41.630Z,11.50
2018-04-06T10:07:09.442Z,11.60
2018-04-06T10:09:37.954Z,11.60
2018-04-06T10:12:05.708Z,11.60
2018-04-06T10:14:33.532Z,11.40
2018-04-06T10:17:01.290Z,11.00
2018-04-06T10:19:29.042Z,10.90
2018-04-06T10:21:56.871Z,11.10
2018-04-06T10:24:24.719Z,11.10
2018-04-06T10:26:52.469Z,11.00
2018-04-06T10:29:21.035Z,10.80
2018-04-06T10:31:48.797Z,10.70
2018-04-06T10:34:16.581Z,10.90
2018-04-06T10:36:45.160Z,11.00
2018-04-06T10:39:12.913Z,11.00
2018-04-06T10:41:40.744Z,11.00
2018-04-06T10:44:08.567Z,10.80
2018-04-06T10:46:36.331Z,10.70
2018-04-06T10:49:04.097Z,10.90
2018-04-06T10:51:31.919Z,10.80
2018-04-06T10:53:59.674Z,10.60
2018-04-06T10:56:27.451Z,10.30
2018-04-06T10:58:56.033Z,10.80
2018-04-06T11:01:26.114Z,11.10
2018-04-06T11:03:53.895Z,11.10
2018-04-06T11:06:21.711Z,11.20
2018-04-06T11:08:49.474Z,11.30
2018-04-06T11:11:17.229Z,11.30
2018-04-06T11:13:45.043Z,11.50
2018-04-06T11:16:13.611Z,11.50
2018-04-06T11:18:41.386Z,11.50
2018-04-06T11:21:09.202Z,11.50
2018-04-06T11:23:36.957Z,11.50
2018-04-06T11:26:04.788Z,11.40
2018-04-06T11:28:33.374Z,11.40
2018-04-06T11:31:02.941Z,11.60
2018-04-06T11:33:31.230Z,11.60
2018-04-06T11:35:59.305Z,11.70
2018-04-06T11:38:28.478Z,11.70
2018-04-06T11:40:56.450Z,11.70
2018-04-06T11:43:24.258Z,11.80
2018-04-06T11:45:52.019Z,11.80
2018-04-06T11:48:20.961Z,12.00
2018-04-06T11:50:48.779Z,12.00
2018-04-06T11:53:17.315Z,11.90
2018-04-06T11:55:45.066Z,11.90
2018-04-06T11:58:14.129Z,11.80
2018-04-06T12:00:42.646Z,11.80
2018-04-06T12:03:10.421Z,11.70
2018-04-06T12:05:38.234Z,11.80
2018-04-06T12:08:06.048Z,11.90
2018-04-06T12:10:33.944Z,11.80
2018-04-06T12:13:01.771Z,11.70
2018-04-06T12:15:29.534Z,11.90
2018-04-06T12:17:57.280Z,12.00
2018-04-06T12:20:25.090Z,12.00
2018-04-06T12:22:52.849Z,12.20
2018-04-06T12:25:20.614Z,12.00
2018-04-06T12:27:48.447Z,11.90
2018-04-06T12:30:17.055Z,11.80
2018-04-06T12:32:44.808Z,11.80
2018-04-06T12:35:13.752Z,11.80
2018-04-06T12:37:41.532Z,11.80
2018-04-06T12:40:09.312Z,11.80
2018-04-06T12:42:37.886Z,12.00
2018-04-06T12:45:06.418Z,12.20
2018-04-06T12:47:34.228Z,12.20
2018-04-06T12:50:02.804Z,12.40
2018-04-06T12:52:30.569Z,12.40
2018-04-06T12:54:59.104Z,12.30
2018-04-06T12:57:27.564Z,12.30
2018-04-06T12:59:55.391Z,12.20
2018-04-06T13:02:24.746Z,12.30
2018-04-06T13:04:52.574Z,12.30
2018-04-06T13:07:20.343Z,12.30
2018-04-06T13:09:48.098Z,12.30
2018-04-06T13:12:16.675Z,12.30
2018-04-06T13:14:45.219Z,12.20
2018-04-06T13:17:12.994Z,12.20
2018-04-06T13:19:40.798Z,12.30
2018-04-06T13:22:08.574Z,12.30
2018-04-06T13:24:36.346Z,12.30
2018-04-06T13:27:04.185Z,12.40
2018-04-06T13:29:31.942Z,12.60
2018-04-06T13:31:59.698Z,12.60
2018-04-06T13:34:27.510Z,12.50
2018-04-06T13:36:55.296Z,12.50
2018-04-06T13:39:23.063Z,12.30
2018-04-06T13:41:51.661Z,12.10
2018-04-06T13:44:19.494Z,12.10
2018-04-06T13:46:47.250Z,12.20
2018-04-06T13:49:15.086Z,12.30
2018-04-06T13:51:42.840Z,12.40
2018-04-06T13:54:10.594Z,12.40
2018-04-06T13:56:38.445Z,12.20
2018-04-06T13:59:06.202Z,12.10
2018-04-06T14:01:33.960Z,12.00
2018-04-06T14:04:02.540Z,11.90
2018-04-06T14:06:31.127Z,12.00
2018-04-06T14:08:59.634Z,12.10
2018-04-06T14:11:27.442Z,12.10
2018-04-06T14:13:55.209Z,12.10
2018-04-06T14:16:23.734Z,12.10
2018-04-06T14:18:51.540Z,12.10
2018-04-06T14:21:19.297Z,12.10
2018-04-06T14:23:47.064Z,12.20
2018-04-06T14:26:14.906Z,12.20
2018-04-06T14:28:42.663Z,12.30
2018-04-06T14:31:12.402Z,12.30
2018-04-06T14:33:40.571Z,12.30
2018-04-06T14:36:08.603Z,12.20
2018-04-06T14:38:36.401Z,12.20
2018-04-06T14:41:04.213Z,12.20
2018-04-06T14:43:31.988Z,12.10
2018-04-06T14:45:59.747Z,12.20
2018-04-06T14:48:28.277Z,12.20
2018-04-06T14:50:56.801Z,12.20
2018-04-06T14:53:24.560Z,12.20
2018-04-06T14:55:52.392Z,12.30
2018-04-06T14:58:20.929Z,12.20
2018-04-06T15:00:48.850Z,12.20
2018-04-06T15:03:16.661Z,12.30
2018-04-06T15:05:44.448Z,12.30
2018-04-06T15:08:13.099Z,12.20
2018-04-06T15:10:41.004Z,12.20
2018-04-06T15:13:09.545Z,11.90
2018-04-06T15:15:37.326Z,11.90
2018-04-06T15:18:05.188Z,11.70
2018-04-06T15:20:32.968Z,11.70
2018-04-06T15:23:01.505Z,11.60
2018-04-06T15:25:29.390Z,11.60
2018-04-06T15:27:59.021Z,11.70
2018-04-06T15:30:27.585Z,11.70
2018-04-06T15:32:56.449Z,11.70
2018-04-06T15:35:24.259Z,11.70
2018-04-06T15:37:52.025Z,11.70
2018-04-06T15:40:19.889Z,11.80
2018-04-06T15:42:47.669Z,11.80
2018-04-06T15:45:15.450Z,11.80
2018-04-06T15:47:43.272Z,11.80
2018-04-06T15:50:11.792Z,11.70
2018-04-06T15:52:39.546Z,11.70
2018-04-06T15:55:07.396Z,11.60
2018-04-06T15:57:35.381Z,11.70
2018-04-06T16:00:03.285Z,11.60
2018-04-06T16:02:32.100Z,11.50
2018-04-06T16:05:00.631Z,11.40
2018-04-06T16:07:28.416Z,11.40
2018-04-06T16:09:56.358Z,11.40
2018-04-06T16:12:24.121Z,11.30
2018-04-06T16:14:51.971Z,11.40
2018-04-06T16:17:19.854Z,11.30
2018-04-06T16:19:47.644Z,11.30
2018-04-06T16:22:16.202Z,11.20
2018-04-06T16:24:44.025Z,11.20
2018-04-06T16:27:11.820Z,11.20
2018-04-06T16:29:39.595Z,11.20
2018-04-06T16:32:07.445Z,11.10
2018-04-06T16:34:35.223Z,11.10
2018-04-06T16:37:03.047Z,11.00
2018-04-06T16:39:30.856Z,10.90
2018-04-06T16:41:58.623Z,10.80
2018-04-06T16:44:26.374Z,10.70
2018-04-06T16:46:54.174Z,10.70
2018-04-06T16:49:21.961Z,10.60
2018-04-06T16:51:49.708Z,10.60
2018-04-06T16:54:17.520Z,10.60
2018-04-06T16:56:45.271Z,10.50
2018-04-06T16:59:13.037Z,10.50
2018-04-06T17:01:40.863Z,10.40
2018-04-06T17:04:08.627Z,10.30
2018-04-06T17:06:40.456Z,10.30
2018-04-06T17:09:09.042Z,10.10
2018-04-06T17:11:36.799Z,10.10
2018-04-06T17:14:05.347Z,9.90
2018-04-06T17:16:33.204Z,9.90
2018-04-06T17:19:00.961Z,9.80
2018-04-06T17:21:28.880Z,9.70
2018-04-06T17:23:56.713Z,9.60
2018-04-06T17:26:24.478Z,9.50
2018-04-06T17:28:52.249Z,9.40
2018-04-06T17:31:20.134Z,9.30
2018-04-06T17:33:47.894Z,9.20
2018-04-06T17:36:15.688Z,9.10
2018-04-06T17:38:43.498Z,9.00
2018-04-06T17:41:12.035Z,8.80
2018-04-06T17:43:39.793Z,8.80
2018-04-06T17:46:07.595Z,8.70
2018-04-06T17:48:35.340Z,8.70
2018-04-06T17:51:03.099Z,8.70
2018-04-06T17:53:30.902Z,8.60
2018-04-06T17:56:00.101Z,8.40
2018-04-06T17:58:27.852Z,8.40
2018-04-06T18:00:56.440Z,8.20
2018-04-06T18:03:24.218Z,8.20
2018-04-06T18:05:51.962Z,8.20
2018-04-06T18:08:20.541Z,8.10
2018-04-06T18:10:48.304Z,8.00
2018-04-06T18:13:16.063Z,8.00
2018-04-06T18:15:44.632Z,7.80
2018-04-06T18:18:13.156Z,7.80
2018-04-06T18:20:40.926Z,7.70
2018-04-06T18:23:08.731Z,7.70
2018-04-06T18:25:37.257Z,7.70
2018-04-06T18:28:05.034Z,7.60
2018-04-06T18:30:32.862Z,7.60
2018-04-06T18:33:00.639Z,7.60
2018-04-06T18:35:28.398Z,7.50
2018-04-06T18:37:56.231Z,7.50
2018-04-06T18:40:24.759Z,7.40
2018-04-06T18:42:53.378Z,7.40
2018-04-06T18:45:21.215Z,7.40
2018-04-06T18:47:49.826Z,7.50
2018-04-06T18:50:17.602Z,7.50
2018-04-06T18:52:46.382Z,7.40
2018-04-06T18:55:14.974Z,7.40
2018-04-06T18:57:43.548Z,7.40
2018-04-06T19:00:12.129Z,7.40
2018-04-06T19:02:39.970Z,7.40
2018-04-06T19:05:07.743Z,7.40
2018-04-06T19:07:35.780Z,7.30
2018-04-06T19:10:03.602Z,7.30
2018-04-06T19:12:31.381Z,7.20
2018-04-06T19:14:59.228Z,7.10
2018-04-06T19:17:27.014Z,7.00
2018-04-06T19:19:54.842Z,7.00
2018-04-06T19:22:23.484Z,6.80
2018-04-06T19:24:51.313Z,6.80
2018-04-06T19:27:19.113Z,6.70
2018-04-06T19:29:47.732Z,6.70
2018-04-06T19:32:16.269Z,6.70
2018-04-06T19:34:44.061Z,6.60
2018-04-06T19:37:12.653Z,6.60
2018-04-06T19:39:41.292Z,6.60
2018-04-06T19:42:09.066Z,6.60
2018-04-06T19:44:36.876Z,6.60
2018-04-06T19:47:04.680Z,6.60
2018-04-06T19:49:32.549Z,6.50
2018-04-06T19:52:00.402Z,6.50
2018-04-06T19:54:28.159Z,6.40
2018-04-06T19:56:56.044Z,6.50
2018-04-06T19:59:48.523Z,6.50
2018-04-06T20:02:17.215Z,6.60
2018-04-06T20:04:44.977Z,6.60
2018-04-06T20:07:12.794Z,6.60
2018-04-06T20:09:40.550Z,6.70
2018-04-06T20:12:08.558Z,6.80
2018-04-06T20:14:37.215Z,6.60
2018-04-06T20:17:05.195Z,6.60
2018-04-06T20:19:33.754Z,6.40
2018-04-06T20:22:01.618Z,6.40
2018-04-06T20:24:29.635Z,6.40
2018-04-06T20:26:57.425Z,6.40
2018-04-06T20:29:25.255Z,6.40
2018-04-06T20:31:53.018Z,6.40
2018-04-06T20:34:20.806Z,6.30
2018-04-06T20:36:48.632Z,6.20
2018-04-06T20:39:17.183Z,6.10
2018-04-06T20:41:44.999Z,6.10
2018-04-06T20:44:12.904Z,6.00
2018-04-06T20:46:40.677Z,6.00
2018-04-06T20:49:08.454Z,6.10
2018-04-06T20:51:37.040Z,6.00
2018-04-06T20:54:05.599Z,5.90
2018-04-06T20:56:33.361Z,5.90
2018-04-06T20:59:01.178Z,6.00
2018-04-06T21:01:28.956Z,6.00
2018-04-06T21:03:56.724Z,5.90
2018-04-06T21:06:24.540Z,5.80
2018-04-06T21:08:53.683Z,5.90
2018-04-06T21:11:21.789Z,6.00
2018-04-06T21:13:50.754Z,6.20
2018-04-06T21:16:18.516Z,6.10
2018-04-06T21:18:46.271Z,6.20
2018-04-06T21:21:14.278Z,6.10
2018-04-06T21:23:42.892Z,5.90
2018-04-06T21:26:10.651Z,6.00
2018-04-06T21:28:38.471Z,6.10
2018-04-06T21:31:06.234Z,6.10
2018-04-06T21:33:34.010Z,6.10
2018-04-06T21:36:01.887Z,6.10
2018-04-06T21:38:29.686Z,6.30
2018-04-06T21:40:57.454Z,6.40
2018-04-06T21:43:25.319Z,6.50
2018-04-06T21:45:53.110Z,6.50
2018-04-06T21:48:21.661Z,6.50
2018-04-06T21:50:49.514Z,6.50
2018-04-06T21:53:17.284Z,6.40
2018-04-06T21:55:45.074Z,6.40
2018-04-06T21:58:12.956Z,6.30
2018-04-06T22:00:41.490Z,6.20
2018-04-06T22:03:09.269Z,6.10
2018-04-06T22:05:37.111Z,6.10
2018-04-06T22:08:04.897Z,6.10
2018-04-06T22:10:32.664Z,6.10
2018-04-06T22:13:00.494Z,6.00
2018-04-06T22:15:28.280Z,5.90
2018-04-06T22:17:56.045Z,5.80
2018-04-06T22:20:23.893Z,5.80
2018-04-06T22:22:51.651Z,5.90
2018-04-06T22:25:19.419Z,5.70
2018-04-06T22:27:47.234Z,5.60
2018-04-06T22:30:15.037Z,5.60
2018-04-06T22:32:42.799Z,5.60
2018-04-06T22:35:10.650Z,5.60
2018-04-06T22:37:38.447Z,5.60
2018-04-06T22:40:06.237Z,5.60
2018-04-06T22:42:34.860Z,5.40
2018-04-06T22:45:02.674Z,5.40
2018-04-06T22:47:31.206Z,5.20
2018-04-06T22:49:59.023Z,5.10
2018-04-06T22:52:27.545Z,5.10
2018-04-06T22:54:55.294Z,5.00
2018-04-06T22:57:23.118Z,5.00
2018-04-06T22:59:50.878Z,5.00
2018-04-06T23:02:19.427Z,5.10
2018-04-06T23:04:47.240Z,5.10
2018-04-06T23:07:15.010Z,5.20
2018-04-06T23:09:43.549Z,5.20
2018-04-06T23:12:11.395Z,5.10
2018-04-06T23:14:39.153Z,5.00
2018-04-06T23:17:06.913Z,4.90
2018-04-06T23:19:34.725Z,4.90
2018-04-06T23:22:03.258Z,4.90
2018-04-06T23:24:31.025Z,4.90
2018-04-06T23:26:58.845Z,4.90
2018-04-06T23:29:26.605Z,5.00
2018-04-06T23:31:54.358Z,5.00
2018-04-06T23:34:22.937Z,4.80
2018-04-06T23:36:51.464Z,4.80
2018-04-06T23:39:19.222Z,4.80
2018-04-06T23:41:47.028Z,4.70
2018-04-06T23:44:15.561Z,4.70
2018-04-06T23:46:43.329Z,4.70
2018-04-06T23:49:11.150Z,4.60
2018-04-06T23:51:39.678Z,4.50
2018-04-06T23:54:07.442Z,4.50
2018-04-06T23:56:35.275Z,4.50
2018-04-06T23:59:03.037Z,4.50
